createdAt,value
2018-07-13T00:00:09.897Z,18.17
2018-07-13T00:01:09.904Z,18.20
2018-07-13T00:02:09.910Z,18.21
2018-07-13T00:03:09.917Z,18.25
2018-07-13T00:04:09.926Z,18.21
2018-07-13T00:05:09.945Z,18.26
2018-07-13T00:06:09.967Z,18.21
2018-07-13T00:07:09.962Z,18.19
2018-07-13T00:08:09.973Z,18.20
2018-07-13T00:09:10.015Z,18.23
2018-07-13T00:10:10.003Z,18.17
2018-07-13T00:11:10.009Z,18.14
2018-07-13T00:12:10.031Z,18.04
2018-07-13T00:13:10.037Z,18.10
2018-07-13T00:14:10.047Z,18.11
2018-07-13T00:15:10.051Z,18.05
2018-07-13T00:16:10.064Z,17.99
2018-07-13T00:17:10.090Z,18.01
2018-07-13T00:18:10.090Z,17.98
2018-07-13T00:19:10.102Z,18.01
2018-07-13T00:20:10.112Z,18.01
2018-07-13T00:21:10.121Z,17.98
2018-07-13T00:22:10.135Z,18.01
2018-07-13T00:23:10.147Z,18.02
2018-07-13T00:24:10.164Z,17.92
2018-07-13T00:25:10.164Z,17.99
2018-07-13T00:26:10.184Z,17.87
2018-07-13T00:27:10.195Z,18.01
2018-07-13T00:28:10.194Z,17.95
2018-07-13T00:29:10.218Z,17.96
2018-07-13T00:30:10.217Z,17.86
2018-07-13T00:31:10.227Z,17.94
2018-07-13T00:32:10.236Z,17.89
2018-07-13T00:33:10.245Z,17.80
2018-07-13T00:34:10.264Z,17.91
2018-07-13T00:35:10.270Z,17.83
2018-07-13T00:36:10.285Z,17.87
2018-07-13T00:37:10.299Z,17.80
2018-07-13T00:38:10.306Z,17.76
2018-07-13T00:39:10.312Z,17.77
2018-07-13T00:40:10.331Z,17.70
2018-07-13T00:41:10.344Z,17.70
2018-07-13T00:42:10.351Z,17.68
2018-07-13T00:43:10.367Z,17.73
2018-07-13T00:44:10.375Z,17.60
2018-07-13T00:46:10.397Z,17.60
2018-07-13T00:47:10.403Z,17.60
2018-07-13T00:48:10.411Z,17.63
2018-07-13T00:49:10.429Z,17.51
2018-07-13T00:50:10.444Z,17.63
2018-07-13T00:51:10.447Z,17.46
2018-07-13T00:52:10.457Z,17.46
2018-07-13T00:53:10.456Z,17.54
2018-07-13T00:54:10.485Z,17.51
2018-07-13T00:55:10.493Z,17.46
2018-07-13T00:56:10.508Z,17.47
2018-07-13T00:57:10.509Z,17.42
2018-07-13T00:58:10.519Z,17.40
2018-07-13T00:59:10.527Z,17.39
2018-07-13T01:00:10.540Z,17.39
2018-07-13T01:01:10.551Z,17.36
2018-07-13T01:02:10.562Z,17.39
2018-07-13T01:03:10.578Z,17.32
2018-07-13T01:04:10.585Z,17.32
2018-07-13T01:05:10.595Z,17.30
2018-07-13T01:06:10.612Z,17.33
2018-07-13T01:07:10.618Z,17.28
2018-07-13T01:08:10.629Z,17.28
2018-07-13T01:09:10.640Z,17.24
2018-07-13T01:10:10.660Z,17.24
2018-07-13T01:11:10.662Z,17.21
2018-07-13T01:12:10.671Z,17.24
2018-07-13T01:13:10.685Z,17.21
2018-07-13T01:14:10.696Z,17.28
2018-07-13T01:15:10.705Z,17.27
2018-07-13T01:16:10.716Z,17.25
2018-07-13T01:17:10.725Z,17.18
2018-07-13T01:18:10.737Z,17.17
2018-07-13T01:19:10.747Z,17.20
2018-07-13T01:20:10.758Z,17.14
2018-07-13T01:21:10.767Z,17.24
2018-07-13T01:22:10.781Z,17.18
2018-07-13T01:23:10.788Z,17.12
2018-07-13T01:24:10.805Z,17.09
2018-07-13T01:25:10.814Z,17.14
2018-07-13T01:26:10.817Z,17.10
2018-07-13T01:27:10.830Z,17.07
2018-07-13T01:28:10.838Z,17.06
2018-07-13T01:29:10.859Z,16.90
2018-07-13T01:30:10.865Z,17.03
2018-07-13T01:31:10.865Z,16.87
2018-07-13T01:32:10.881Z,17.00
2018-07-13T01:33:10.894Z,17.02
2018-07-13T01:34:10.907Z,16.95
2018-07-13T01:35:10.916Z,16.99
2018-07-13T01:36:10.920Z,16.98
2018-07-13T01:37:10.936Z,17.00
2018-07-13T01:38:10.945Z,17.00
2018-07-13T01:39:10.957Z,16.98
2018-07-13T01:40:10.965Z,16.88
2018-07-13T01:41:10.987Z,16.96
2018-07-13T01:42:10.993Z,16.99
2018-07-13T01:43:11.000Z,16.90
2018-07-13T01:44:11.008Z,16.98
2018-07-13T01:45:11.018Z,16.96
2018-07-13T01:46:11.030Z,16.81
2018-07-13T01:47:11.047Z,16.81
2018-07-13T01:48:11.051Z,16.88
2018-07-13T01:49:11.071Z,16.90
2018-07-13T01:50:11.073Z,16.85
2018-07-13T01:51:11.087Z,16.81
2018-07-13T01:52:11.092Z,16.78
2018-07-13T01:53:11.109Z,16.75
2018-07-13T01:54:11.118Z,16.70
2018-07-13T01:55:11.124Z,16.72
2018-07-13T01:56:11.137Z,16.63
2018-07-13T01:57:11.144Z,16.67
2018-07-13T01:58:11.158Z,16.60
2018-07-13T01:59:11.167Z,16.65
2018-07-13T02:00:11.174Z,16.57
2018-07-13T02:01:11.185Z,16.55
2018-07-13T02:02:11.200Z,16.55
2018-07-13T02:03:11.207Z,16.55
2018-07-13T02:04:11.226Z,16.54
2018-07-13T02:05:11.232Z,16.51
2018-07-13T02:06:11.243Z,16.51
2018-07-13T02:07:11.254Z,16.52
2018-07-13T02:08:11.265Z,16.48
2018-07-13T02:09:11.279Z,16.62
2018-07-13T02:10:11.280Z,16.57
2018-07-13T02:11:11.292Z,16.57
2018-07-13T02:12:11.302Z,16.51
2018-07-13T02:13:11.320Z,16.59
2018-07-13T02:14:11.320Z,16.50
2018-07-13T02:15:11.335Z,16.42
2018-07-13T02:16:11.348Z,16.55
2018-07-13T02:17:11.372Z,16.45
2018-07-13T02:18:11.370Z,16.48
2018-07-13T02:19:11.381Z,16.52
2018-07-13T02:20:11.387Z,16.42
2018-07-13T02:21:11.393Z,16.44
2018-07-13T02:22:11.409Z,16.45
2018-07-13T02:23:11.417Z,16.41
2018-07-13T02:24:11.428Z,16.41
2018-07-13T02:25:11.437Z,16.33
2018-07-13T02:26:11.457Z,16.33
2018-07-13T02:27:11.463Z,16.34
2018-07-13T02:28:11.473Z,16.48
2018-07-13T02:29:11.482Z,16.40
2018-07-13T02:30:11.487Z,16.45
2018-07-13T02:31:11.502Z,16.44
2018-07-13T02:32:11.519Z,16.44
2018-07-13T02:33:11.524Z,16.45
2018-07-13T02:34:11.534Z,16.37
2018-07-13T02:35:11.543Z,16.29
2018-07-13T02:36:11.550Z,16.47
2018-07-13T02:37:11.584Z,16.42
2018-07-13T02:38:11.575Z,16.42
2018-07-13T02:39:11.638Z,16.32
2018-07-13T02:40:11.605Z,16.33
2018-07-13T02:41:11.614Z,16.29
2018-07-13T02:42:11.611Z,16.34
2018-07-13T02:43:11.626Z,16.32
2018-07-13T02:44:11.641Z,16.32
2018-07-13T02:45:11.643Z,16.26
2018-07-13T02:46:11.653Z,16.16
2018-07-13T02:47:11.682Z,16.26
2018-07-13T02:48:11.691Z,16.18
2018-07-13T02:49:11.688Z,16.18
2018-07-13T02:50:11.699Z,16.07
2018-07-13T02:51:11.707Z,16.07
2018-07-13T02:52:11.709Z,16.06
2018-07-13T02:53:11.722Z,16.13
2018-07-13T02:54:11.743Z,16.11
2018-07-13T02:55:11.751Z,16.14
2018-07-13T02:56:11.759Z,16.04
2018-07-13T02:57:11.771Z,15.98
2018-07-13T02:58:11.780Z,15.99
2018-07-13T02:59:11.783Z,15.98
2018-07-13T03:00:11.832Z,15.93
2018-07-13T03:01:11.813Z,15.92
2018-07-13T03:02:11.828Z,16.06
2018-07-13T03:03:11.836Z,16.01
2018-07-13T03:04:11.846Z,15.93
2018-07-13T03:05:11.849Z,15.91
2018-07-13T03:06:11.862Z,15.86
2018-07-13T03:07:11.872Z,15.96
2018-07-13T03:08:11.882Z,15.91
2018-07-13T03:09:11.892Z,16.04
2018-07-13T03:10:11.899Z,16.01
2018-07-13T03:11:11.912Z,15.89
2018-07-13T03:12:11.931Z,16.07
2018-07-13T03:13:11.935Z,15.99
2018-07-13T03:14:11.942Z,15.99
2018-07-13T03:15:11.960Z,15.98
2018-07-13T03:16:11.966Z,16.04
2018-07-13T03:17:11.975Z,15.96
2018-07-13T03:18:11.987Z,16.01
2018-07-13T03:19:11.993Z,16.06
2018-07-13T03:20:12.003Z,15.99
2018-07-13T03:21:12.016Z,15.96
2018-07-13T03:22:12.072Z,15.99
2018-07-13T03:23:12.034Z,16.01
2018-07-13T03:24:12.045Z,16.04
2018-07-13T03:25:12.055Z,15.96
2018-07-13T03:26:12.069Z,16.10
2018-07-13T03:27:12.075Z,16.06
2018-07-13T03:28:12.085Z,16.10
2018-07-13T03:29:12.093Z,16.04
2018-07-13T03:30:12.103Z,16.08
2018-07-13T03:31:12.125Z,16.06
2018-07-13T03:32:12.146Z,16.07
2018-07-13T03:33:12.136Z,16.06
2018-07-13T03:34:12.158Z,16.07
2018-07-13T03:35:12.154Z,16.07
2018-07-13T03:36:12.173Z,16.07
2018-07-13T03:37:12.181Z,16.07
2018-07-13T03:38:12.202Z,15.89
2018-07-13T03:39:12.197Z,15.99
2018-07-13T03:40:12.212Z,15.96
2018-07-13T03:41:12.223Z,16.04
2018-07-13T03:42:12.233Z,15.93
2018-07-13T03:43:12.242Z,15.92
2018-07-13T03:44:12.249Z,15.98
2018-07-13T03:45:12.257Z,15.92
2018-07-13T03:46:12.271Z,15.95
2018-07-13T03:47:12.278Z,15.99
2018-07-13T03:48:12.285Z,15.84
2018-07-13T03:49:12.299Z,15.88
2018-07-13T03:50:12.406Z,15.95
2018-07-13T03:51:12.328Z,15.85
2018-07-13T03:52:12.322Z,15.93
2018-07-13T03:53:12.339Z,15.91
2018-07-13T03:54:12.363Z,15.84
2018-07-13T03:55:12.365Z,15.95
2018-07-13T03:56:12.381Z,15.99
2018-07-13T03:57:12.388Z,16.03
2018-07-13T03:58:12.387Z,16.03
2018-07-13T03:59:12.403Z,15.96
2018-07-13T04:00:12.411Z,16.01
2018-07-13T04:01:12.427Z,15.86
2018-07-13T04:02:12.433Z,15.86
2018-07-13T04:03:12.449Z,15.85
2018-07-13T04:04:12.451Z,15.81
2018-07-13T04:05:12.464Z,15.76
2018-07-13T04:06:12.477Z,15.78
2018-07-13T04:07:12.489Z,15.84
2018-07-13T04:08:12.499Z,15.84
2018-07-13T04:09:12.507Z,15.76
2018-07-13T04:10:12.519Z,15.74
2018-07-13T04:11:12.526Z,15.74
2018-07-13T04:12:12.551Z,15.78
2018-07-13T04:13:12.552Z,15.77
2018-07-13T04:14:12.560Z,15.74
2018-07-13T04:15:12.572Z,15.71
2018-07-13T04:16:12.574Z,15.78
2018-07-13T04:17:12.589Z,15.73
2018-07-13T04:18:12.593Z,15.80
2018-07-13T04:19:12.604Z,15.78
2018-07-13T04:20:12.620Z,15.74
2018-07-13T04:21:12.625Z,15.70
2018-07-13T04:22:12.641Z,15.73
2018-07-13T04:23:12.653Z,15.74
2018-07-13T04:24:12.663Z,15.78
2018-07-13T04:25:12.668Z,15.86
2018-07-13T04:26:12.683Z,15.81
2018-07-13T04:27:12.689Z,15.85
2018-07-13T04:28:12.716Z,15.92
2018-07-13T04:29:12.713Z,15.92
2018-07-13T04:30:12.725Z,15.93
2018-07-13T04:31:12.739Z,16.04
2018-07-13T04:32:12.744Z,15.99
2018-07-13T04:33:12.760Z,15.95
2018-07-13T04:34:12.781Z,16.03
2018-07-13T04:35:12.772Z,16.03
2018-07-13T04:36:12.786Z,15.96
2018-07-13T04:37:12.802Z,15.98
2018-07-13T04:38:12.814Z,15.96
2018-07-13T04:39:12.817Z,15.99
2018-07-13T04:40:12.824Z,15.96
2018-07-13T04:41:12.836Z,16.18
2018-07-13T04:42:12.846Z,16.11
2018-07-13T04:43:12.876Z,16.11
2018-07-13T04:44:12.867Z,16.27
2018-07-13T04:45:12.888Z,16.25
2018-07-13T04:46:12.894Z,16.34
2018-07-13T04:47:12.902Z,16.36
2018-07-13T04:48:12.912Z,16.32
2018-07-13T04:49:12.925Z,16.22
2018-07-13T04:50:12.948Z,16.30
2018-07-13T04:51:12.948Z,16.30
2018-07-13T04:52:12.950Z,16.18
2018-07-13T04:53:12.965Z,16.16
2018-07-13T04:54:12.975Z,16.36
2018-07-13T04:55:12.983Z,16.40
2018-07-13T04:56:13.001Z,16.44
2018-07-13T04:57:13.014Z,16.44
2018-07-13T04:58:13.018Z,16.29
2018-07-13T05:00:13.053Z,16.48
2018-07-13T05:01:13.057Z,16.47
2018-07-13T05:02:13.064Z,16.45
2018-07-13T05:03:13.069Z,16.33
2018-07-13T05:04:13.082Z,16.36
2018-07-13T05:05:13.124Z,16.34
2018-07-13T05:06:13.143Z,16.34
2018-07-13T05:07:13.110Z,16.47
2018-07-13T05:08:13.126Z,16.37
2018-07-13T05:09:13.148Z,16.42
2018-07-13T05:10:13.145Z,16.40
2018-07-13T05:11:13.149Z,16.54
2018-07-13T05:12:13.161Z,16.50
2018-07-13T05:13:13.180Z,16.62
2018-07-13T05:14:13.177Z,16.69
2018-07-13T05:15:13.197Z,16.67
2018-07-13T05:16:13.205Z,16.73
2018-07-13T05:17:13.223Z,16.81
2018-07-13T05:18:13.221Z,16.88
2018-07-13T05:19:13.237Z,16.95
2018-07-13T05:20:13.248Z,16.96
2018-07-13T05:21:13.280Z,17.00
2018-07-13T05:22:13.267Z,17.20
2018-07-13T05:23:13.288Z,17.20
2018-07-13T05:24:13.322Z,17.21
2018-07-13T05:25:13.312Z,17.18
2018-07-13T05:26:13.324Z,17.17
2018-07-13T05:27:13.333Z,17.24
2018-07-13T05:28:13.337Z,17.21
2018-07-13T05:29:13.355Z,17.30
2018-07-13T05:30:13.350Z,17.35
2018-07-13T05:31:13.371Z,17.39
2018-07-13T05:32:13.394Z,17.33
2018-07-13T05:33:13.397Z,17.36
2018-07-13T05:34:13.408Z,17.40
2018-07-13T05:35:13.417Z,17.35
2018-07-13T05:36:13.426Z,17.39
2018-07-13T05:37:13.447Z,17.38
2018-07-13T05:38:13.452Z,17.45
2018-07-13T05:39:13.455Z,17.42
2018-07-13T05:40:13.478Z,17.32
2018-07-13T05:41:13.478Z,17.27
2018-07-13T05:42:13.489Z,17.27
2018-07-13T05:43:13.498Z,17.30
2018-07-13T05:44:13.512Z,17.18
2018-07-13T05:45:13.545Z,17.15
2018-07-13T05:46:13.545Z,17.20
2018-07-13T05:47:13.571Z,17.06
2018-07-13T05:48:13.581Z,17.20
2018-07-13T05:49:13.572Z,17.22
2018-07-13T05:50:13.577Z,17.28
2018-07-13T05:51:13.593Z,17.28
2018-07-13T05:52:13.600Z,17.22
2018-07-13T05:53:13.606Z,17.15
2018-07-13T05:54:13.621Z,17.17
2018-07-13T05:55:13.633Z,17.05
2018-07-13T05:56:13.637Z,17.17
2018-07-13T05:57:13.648Z,17.18
2018-07-13T05:58:13.670Z,17.21
2018-07-13T05:59:13.680Z,17.24
2018-07-13T06:00:13.689Z,17.28
2018-07-13T06:01:13.704Z,17.36
2018-07-13T06:02:13.724Z,17.39
2018-07-13T06:03:13.727Z,17.40
2018-07-13T06:04:13.746Z,17.35
2018-07-13T06:05:13.755Z,17.40
2018-07-13T06:06:13.838Z,17.35
2018-07-13T06:07:13.769Z,17.35
2018-07-13T06:08:13.780Z,17.45
2018-07-13T06:09:13.789Z,17.32
2018-07-13T06:10:13.795Z,17.42
2018-07-13T06:11:14.048Z,17.33
2018-07-13T06:12:13.819Z,17.45
2018-07-13T06:13:13.908Z,17.39
2018-07-13T06:14:13.870Z,17.43
2018-07-13T06:15:13.856Z,17.38
2018-07-13T06:16:13.869Z,17.42
2018-07-13T06:17:13.881Z,17.46
2018-07-13T06:18:13.889Z,17.49
2018-07-13T06:19:13.900Z,17.65
2018-07-13T06:20:13.909Z,17.66
2018-07-13T06:21:13.918Z,17.71
2018-07-13T06:22:13.953Z,17.74
2018-07-13T06:23:13.942Z,17.74
2018-07-13T06:24:13.996Z,17.77
2018-07-13T06:25:13.957Z,17.73
2018-07-13T06:26:13.978Z,17.70
2018-07-13T06:27:13.993Z,17.66
2018-07-13T06:28:13.999Z,17.70
2018-07-13T06:29:14.011Z,17.73
2018-07-13T06:30:14.088Z,17.77
2018-07-13T06:32:14.039Z,17.70
2018-07-13T06:33:14.062Z,17.80
2018-07-13T06:34:14.071Z,17.74
2018-07-13T06:35:14.085Z,17.86
2018-07-13T06:36:14.097Z,17.80
2018-07-13T06:37:14.112Z,17.79
2018-07-13T06:38:14.119Z,17.79
2018-07-13T06:39:14.128Z,17.84
2018-07-13T06:40:14.138Z,17.91
2018-07-13T06:42:14.162Z,18.02
2018-07-13T06:43:14.176Z,17.99
2018-07-13T06:44:14.201Z,17.98
2018-07-13T06:45:14.201Z,17.92
2018-07-13T06:46:14.204Z,17.99
2018-07-13T06:47:14.217Z,17.81
2018-07-13T06:48:14.231Z,17.94
2018-07-13T06:49:14.256Z,17.96
2018-07-13T06:50:14.256Z,17.92
2018-07-13T06:51:14.265Z,17.92
2018-07-13T06:52:14.276Z,17.87
2018-07-13T06:53:14.289Z,17.95
2018-07-13T06:54:14.405Z,17.95
2018-07-13T06:55:14.331Z,17.96
2018-07-13T06:56:14.325Z,18.02
2018-07-13T06:57:14.339Z,18.17
2018-07-13T06:58:14.353Z,18.20
2018-07-13T06:59:14.366Z,18.28
2018-07-13T07:00:14.380Z,18.39
2018-07-13T07:01:14.386Z,18.32
2018-07-13T07:02:14.404Z,18.36
2018-07-13T07:03:14.408Z,18.29
2018-07-13T07:04:14.421Z,18.36
2018-07-13T07:05:14.444Z,18.41
2018-07-13T07:06:14.447Z,18.50
2018-07-13T07:07:14.455Z,18.53
2018-07-13T07:08:14.472Z,18.50
2018-07-13T07:10:14.515Z,18.49
2018-07-13T07:11:14.501Z,18.46
2018-07-13T07:12:14.512Z,18.51
2018-07-13T07:13:14.524Z,18.47
2018-07-13T07:14:14.547Z,18.32
2018-07-13T07:15:14.564Z,18.26
2018-07-13T07:16:14.563Z,18.16
2018-07-13T07:17:14.571Z,18.13
2018-07-13T07:18:14.589Z,18.13
2018-07-13T07:19:14.597Z,18.21
2018-07-13T07:20:14.611Z,18.29
2018-07-13T07:21:14.616Z,18.41
2018-07-13T07:22:14.631Z,18.56
2018-07-13T07:23:14.645Z,18.57
2018-07-13T07:24:14.666Z,18.60
2018-07-13T07:25:14.675Z,18.60
2018-07-13T07:26:14.685Z,18.59
2018-07-13T07:27:14.694Z,18.68
2018-07-13T07:28:14.700Z,18.66
2018-07-13T07:29:14.723Z,18.69
2018-07-13T07:30:14.726Z,18.78
2018-07-13T07:31:14.737Z,18.78
2018-07-13T07:32:14.750Z,18.74
2018-07-13T07:33:14.766Z,18.71
2018-07-13T07:34:14.778Z,18.74
2018-07-13T07:35:14.782Z,18.76
2018-07-13T07:36:14.804Z,18.69
2018-07-13T07:37:14.815Z,18.71
2018-07-13T07:38:14.826Z,18.46
2018-07-13T07:39:14.839Z,18.56
2018-07-13T07:40:14.852Z,18.57
2018-07-13T07:41:14.863Z,18.69
2018-07-13T07:42:14.879Z,18.86
2018-07-13T07:43:14.890Z,18.87
2018-07-13T07:44:14.900Z,18.87
2018-07-13T07:45:14.911Z,18.78
2018-07-13T07:46:14.952Z,18.76
2018-07-13T07:47:14.936Z,18.65
2018-07-13T07:48:14.978Z,18.60
2018-07-13T07:49:14.966Z,18.50
2018-07-13T07:50:15.031Z,18.60
2018-07-13T07:51:14.995Z,18.64
2018-07-13T07:52:15.006Z,18.65
2018-07-13T07:53:15.018Z,18.59
2018-07-13T07:54:15.030Z,18.42
2018-07-13T07:55:15.057Z,18.35
2018-07-13T07:56:15.052Z,18.20
2018-07-13T07:57:15.069Z,18.14
2018-07-13T07:58:15.097Z,18.26
2018-07-13T07:59:15.099Z,18.21
2018-07-13T08:00:15.111Z,18.38
2018-07-13T08:01:15.118Z,18.42
2018-07-13T08:02:15.143Z,18.59
2018-07-13T08:03:15.153Z,18.51
2018-07-13T08:05:15.174Z,18.75
2018-07-13T08:06:15.364Z,18.91
2018-07-13T08:07:15.581Z,19.16
2018-07-13T08:08:15.219Z,19.20
2018-07-13T08:09:15.239Z,19.39
2018-07-13T08:10:15.253Z,19.34
2018-07-13T08:11:15.271Z,19.57
2018-07-13T08:12:15.280Z,19.47
2018-07-13T08:13:15.303Z,19.60
2018-07-13T08:14:15.611Z,19.64
2018-07-13T08:16:15.352Z,20.10
2018-07-13T08:17:15.364Z,20.37
2018-07-13T08:18:15.381Z,20.60
2018-07-13T08:19:15.400Z,20.76
2018-07-13T08:20:15.440Z,20.93
2018-07-13T08:21:15.444Z,21.05
2018-07-13T08:22:15.447Z,21.22
2018-07-13T08:23:15.465Z,21.31
2018-07-13T08:24:15.486Z,21.33
2018-07-13T08:25:15.491Z,21.38
2018-07-13T08:26:15.538Z,21.45
2018-07-13T08:27:15.537Z,21.48
2018-07-13T08:28:15.553Z,21.63
2018-07-13T08:29:15.563Z,21.63
2018-07-13T08:30:15.580Z,21.52
2018-07-13T08:32:15.623Z,21.45
2018-07-13T08:33:15.636Z,21.40
2018-07-13T08:34:15.656Z,21.59
2018-07-13T08:35:15.663Z,21.71
2018-07-13T08:36:15.707Z,21.64
2018-07-13T08:37:15.715Z,21.58
2018-07-13T08:38:15.721Z,21.51
2018-07-13T08:39:15.747Z,21.38
2018-07-13T08:40:15.770Z,21.42
2018-07-13T08:41:15.780Z,21.58
2018-07-13T08:42:15.830Z,21.85
2018-07-13T08:43:15.824Z,22.08
2018-07-13T08:44:15.833Z,22.29
2018-07-13T08:45:15.865Z,22.29
2018-07-13T08:46:15.928Z,22.31
2018-07-13T08:47:15.885Z,22.15
2018-07-13T08:48:15.913Z,21.89
2018-07-13T08:49:15.924Z,21.91
2018-07-13T08:50:15.953Z,21.89
2018-07-13T08:51:15.971Z,21.52
2018-07-13T08:52:15.979Z,21.51
2018-07-13T08:53:15.993Z,21.38
2018-07-13T08:54:16.019Z,21.75
2018-07-13T08:55:16.042Z,21.94
2018-07-13T08:56:16.095Z,22.30
2018-07-13T08:57:16.072Z,22.39
2018-07-13T08:58:16.092Z,22.56
2018-07-13T08:59:16.104Z,22.76
2018-07-13T09:00:16.154Z,23.15
2018-07-13T09:01:16.140Z,23.35
2018-07-13T09:02:16.157Z,22.89
2018-07-13T09:03:16.179Z,22.61
2018-07-13T09:04:16.223Z,22.59
2018-07-13T09:05:16.227Z,22.57
2018-07-13T09:06:16.249Z,22.56
2018-07-13T09:07:16.256Z,22.75
2018-07-13T09:08:16.272Z,22.48
2018-07-13T09:09:16.289Z,22.56
2018-07-13T09:10:16.308Z,22.69
2018-07-13T09:11:16.331Z,22.99
2018-07-13T09:12:16.357Z,23.19
2018-07-13T09:13:16.367Z,23.59
2018-07-13T09:14:16.394Z,23.86
2018-07-13T09:15:16.408Z,23.97
2018-07-13T09:16:16.428Z,24.30
2018-07-13T09:17:16.440Z,24.26
2018-07-13T09:18:16.522Z,24.04
2018-07-13T09:19:16.485Z,23.99
2018-07-13T09:20:16.511Z,23.89
2018-07-13T09:21:16.519Z,23.74
2018-07-13T09:22:16.546Z,23.60
2018-07-13T09:23:16.560Z,23.26
2018-07-13T09:24:16.579Z,23.00
2018-07-13T09:25:16.603Z,23.11
2018-07-13T09:26:16.613Z,23.14
2018-07-13T09:27:16.636Z,23.29
2018-07-13T09:28:16.653Z,23.64
2018-07-13T09:29:16.667Z,24.08
2018-07-13T09:30:16.695Z,24.37
2018-07-13T09:31:16.796Z,24.70
2018-07-13T09:32:16.733Z,25.09
2018-07-13T09:33:16.756Z,25.63
2018-07-13T09:34:16.771Z,25.83
2018-07-13T09:35:16.805Z,25.76
2018-07-13T09:36:16.805Z,25.05
2018-07-13T09:37:16.833Z,24.55
2018-07-13T09:38:16.867Z,24.06
2018-07-13T09:39:16.862Z,23.92
2018-07-13T09:40:16.887Z,23.79
2018-07-13T09:41:16.905Z,23.92
2018-07-13T09:42:16.923Z,24.19
2018-07-13T09:43:16.958Z,24.34
2018-07-13T09:44:16.961Z,24.77
2018-07-13T09:45:16.981Z,25.01
2018-07-13T09:46:17.005Z,25.34
2018-07-13T09:47:17.013Z,25.78
2018-07-13T09:48:17.037Z,25.90
2018-07-13T09:49:17.061Z,26.29
2018-07-13T09:50:17.080Z,26.54
2018-07-13T09:51:17.095Z,27.01
2018-07-13T09:52:17.106Z,27.35
2018-07-13T09:53:17.139Z,27.69
2018-07-13T09:54:17.231Z,27.86
2018-07-13T09:55:17.177Z,28.09
2018-07-13T09:56:17.192Z,28.32
2018-07-13T09:57:17.224Z,28.58
2018-07-13T09:58:17.232Z,28.64
2018-07-13T09:59:17.254Z,28.80
2018-07-13T10:00:17.268Z,28.69
2018-07-13T10:01:17.292Z,28.51
2018-07-13T10:02:17.325Z,28.52
2018-07-13T10:03:17.333Z,28.27
2018-07-13T10:04:17.353Z,28.40
2018-07-13T10:05:17.380Z,28.54
2018-07-13T10:06:17.397Z,28.64
2018-07-13T10:07:17.428Z,28.57
2018-07-13T10:08:17.441Z,28.14
2018-07-13T10:09:17.457Z,27.86
2018-07-13T10:10:17.467Z,27.61
2018-07-13T10:11:17.488Z,27.65
2018-07-13T10:12:17.527Z,27.87
2018-07-13T10:13:17.569Z,27.93
2018-07-13T10:14:17.548Z,28.05
2018-07-13T10:15:17.571Z,28.33
2018-07-13T10:16:17.594Z,28.58
2018-07-13T10:17:17.610Z,28.83
2018-07-13T10:18:17.635Z,29.17
2018-07-13T10:19:17.658Z,29.26
2018-07-13T10:20:17.691Z,29.00
2018-07-13T10:21:17.696Z,28.82
2018-07-13T10:22:17.718Z,28.58
2018-07-13T10:23:17.743Z,28.45
2018-07-13T10:25:17.781Z,28.28
2018-07-13T10:26:17.813Z,28.89
2018-07-13T10:27:17.819Z,29.03
2018-07-13T10:28:17.845Z,29.14
2018-07-13T10:29:17.919Z,28.46
2018-07-13T10:30:17.881Z,28.35
2018-07-13T10:31:17.902Z,28.27
2018-07-13T10:32:17.925Z,28.67
2018-07-13T10:33:17.970Z,29.15
2018-07-13T10:34:17.967Z,29.14
2018-07-13T10:35:17.998Z,29.44
2018-07-13T10:36:18.016Z,29.71
2018-07-13T10:37:18.036Z,30.03
2018-07-13T10:38:18.044Z,30.00
2018-07-13T10:39:18.056Z,29.62
2018-07-13T10:40:18.079Z,29.08
2018-07-13T10:41:18.099Z,29.00
2018-07-13T10:42:18.128Z,29.52
2018-07-13T10:43:18.185Z,29.97
2018-07-13T10:44:18.170Z,30.16
2018-07-13T10:45:18.189Z,30.42
2018-07-13T10:46:18.204Z,30.16
2018-07-13T10:47:18.220Z,30.21
2018-07-13T10:48:18.288Z,30.36
2018-07-13T10:49:18.285Z,30.37
2018-07-13T10:50:18.308Z,30.60
2018-07-13T10:51:18.307Z,30.85
2018-07-13T10:52:18.343Z,31.31
2018-07-13T10:53:18.360Z,31.74
2018-07-13T10:54:18.370Z,31.95
2018-07-13T10:55:18.386Z,31.90
2018-07-13T10:56:18.411Z,32.25
2018-07-13T10:57:18.453Z,32.31
2018-07-13T10:58:18.451Z,32.66
2018-07-13T10:59:18.472Z,32.72
2018-07-13T11:00:18.507Z,32.71
2018-07-13T11:01:18.515Z,32.28
2018-07-13T11:02:18.530Z,32.35
2018-07-13T11:03:18.551Z,32.44
2018-07-13T11:04:18.582Z,32.62
2018-07-13T11:05:18.598Z,32.51
2018-07-13T11:06:18.619Z,31.91
2018-07-13T11:07:18.637Z,31.45
2018-07-13T11:08:18.671Z,31.42
2018-07-13T11:09:18.678Z,31.22
2018-07-13T11:10:18.694Z,31.05
2018-07-13T11:11:18.720Z,30.88
2018-07-13T11:12:18.731Z,31.05
2018-07-13T11:14:18.780Z,31.22
2018-07-13T11:15:18.839Z,31.67
2018-07-13T11:16:18.835Z,32.35
2018-07-13T11:17:18.844Z,32.71
2018-07-13T11:18:18.853Z,33.43
2018-07-13T11:19:18.949Z,33.79
2018-07-13T11:20:18.905Z,34.46
2018-07-13T11:21:18.932Z,34.56
2018-07-13T11:22:18.949Z,34.95
2018-07-13T11:23:18.978Z,35.25
2018-07-13T11:24:19.065Z,35.47
2018-07-13T11:25:19.011Z,34.61
2018-07-13T11:26:19.050Z,33.94
2018-07-13T11:27:19.063Z,33.62
2018-07-13T11:28:19.082Z,33.71
2018-07-13T11:29:19.094Z,33.56
2018-07-13T11:30:19.113Z,33.89
2018-07-13T11:31:19.141Z,34.42
2018-07-13T11:32:19.152Z,34.67
2018-07-13T11:33:21.169Z,34.91
2018-07-13T11:34:19.188Z,34.75
2018-07-13T11:35:19.227Z,34.06
2018-07-13T11:36:19.259Z,33.57
2018-07-13T11:38:19.281Z,33.71
2018-07-13T11:39:19.307Z,33.66
2018-07-13T11:40:19.328Z,33.70
2018-07-13T11:41:19.370Z,33.17
2018-07-13T11:42:19.377Z,32.25
2018-07-13T11:43:19.401Z,31.54
2018-07-13T11:44:19.504Z,31.57
2018-07-13T11:45:19.452Z,32.13
2018-07-13T11:46:19.457Z,32.78
2018-07-13T11:47:19.471Z,33.03
2018-07-13T11:48:19.495Z,33.81
2018-07-13T11:49:19.512Z,34.48
2018-07-13T11:50:19.538Z,35.12
2018-07-13T11:51:19.556Z,35.74
2018-07-13T11:52:19.580Z,36.12
2018-07-13T11:53:19.593Z,35.73
2018-07-13T11:54:19.620Z,35.22
2018-07-13T11:55:19.633Z,34.64
2018-07-13T11:56:19.661Z,34.48
2018-07-13T11:57:19.684Z,34.23
2018-07-13T11:58:19.694Z,34.42
2018-07-13T11:59:19.726Z,34.67
2018-07-13T12:00:19.739Z,34.80
2018-07-13T12:01:19.774Z,34.48
2018-07-13T12:02:19.780Z,34.06
2018-07-13T12:03:19.805Z,34.49
2018-07-13T12:04:19.844Z,34.90
2018-07-13T12:05:19.855Z,35.05
2018-07-13T12:06:19.935Z,35.54
2018-07-13T12:07:19.912Z,35.83
2018-07-13T12:08:19.913Z,36.22
2018-07-13T12:09:19.950Z,36.22
2018-07-13T12:10:19.964Z,35.71
2018-07-13T12:11:19.976Z,35.99
2018-07-13T12:12:20.006Z,36.30
2018-07-13T12:13:20.022Z,36.59
2018-07-13T12:14:20.049Z,36.84
2018-07-13T12:15:20.057Z,37.08
2018-07-13T12:16:20.088Z,37.43
2018-07-13T12:17:20.125Z,37.42
2018-07-13T12:18:20.120Z,36.79
2018-07-13T12:19:20.161Z,36.00
2018-07-13T12:20:20.197Z,35.20
2018-07-13T12:21:20.191Z,35.24
2018-07-13T12:22:20.212Z,35.29
2018-07-13T12:23:20.262Z,35.61
2018-07-13T12:24:20.251Z,36.03
2018-07-13T12:25:20.281Z,35.80
2018-07-13T12:26:20.298Z,36.06
2018-07-13T12:27:20.322Z,36.28
2018-07-13T12:28:20.332Z,36.86
2018-07-13T12:29:20.360Z,36.87
2018-07-13T12:30:20.385Z,36.90
2018-07-13T12:31:20.397Z,37.04
2018-07-13T12:33:20.435Z,37.84
2018-07-13T12:34:20.485Z,38.19
2018-07-13T12:35:20.496Z,38.31
2018-07-13T12:36:20.504Z,38.28
2018-07-13T12:37:20.551Z,37.70
2018-07-13T12:38:20.561Z,37.85
2018-07-13T12:39:20.572Z,38.21
2018-07-13T12:40:20.621Z,38.19
2018-07-13T12:41:20.624Z,37.88
2018-07-13T12:42:20.648Z,37.02
2018-07-13T12:43:20.660Z,36.64
2018-07-13T12:44:20.706Z,37.11
2018-07-13T12:45:20.712Z,37.68
2018-07-13T12:46:20.728Z,37.99
2018-07-13T12:47:20.740Z,38.38
2018-07-13T12:48:20.779Z,38.37
2018-07-13T12:49:20.800Z,38.26
2018-07-13T12:50:20.814Z,38.72
2018-07-13T12:51:20.851Z,38.82
2018-07-13T12:52:20.861Z,39.06
2018-07-13T12:53:20.891Z,39.46
2018-07-13T12:54:21.147Z,39.59
2018-07-13T12:55:20.924Z,39.59
2018-07-13T12:56:20.964Z,39.84
2018-07-13T12:57:20.970Z,39.96
2018-07-13T12:58:20.997Z,40.18
2018-07-13T12:59:21.078Z,40.16
2018-07-13T13:00:21.032Z,40.41
2018-07-13T13:01:21.077Z,40.02
2018-07-13T13:02:21.085Z,39.61
2018-07-13T13:03:21.103Z,39.61
2018-07-13T13:04:21.131Z,39.29